sensor_id;sensor_type;location;lat;lon;timestamp;P1;durP1;ratioP1;P2;durP2;ratioP2
12585;SDS011;6358;50.760;0.282;2023-02-28T00:00:23;1.57;;;1.23;;
12585;SDS011;6358;50.760;0.282;2023-02-28T00:02:50;1.73;;;1.20;;
12585;SDS011;6358;50.760;0.282;2023-02-28T00:05:18;1.57;;;1.20;;
12585;SDS011;6358;50.760;0.282;2023-02-28T00:07:44;3.07;;;1.50;;
12585;SDS011;6358;50.760;0.282;2023-02-28T00:10:11;2.07;;;1.30;;
12585;SDS011;6358;50.760;0.282;2023-02-28T00:12:38;2.13;;;1.30;;
12585;SDS011;6358;50.760;0.282;2023-02-28T00:15:05;1.90;;;1.40;;
12585;SDS011;6358;50.760;0.282;2023-02-28T00:17:32;2.63;;;1.40;;
12585;SDS011;6358;50.760;0.282;2023-02-28T00:19:58;2.60;;;1.47;;
12585;SDS011;6358;50.760;0.282;2023-02-28T00:22:37;1.77;;;1.20;;
12585;SDS011;6358;50.760;0.282;2023-02-28T00:25:03;1.30;;;1.13;;
12585;SDS011;6358;50.760;0.282;2023-02-28T00:27:31;1.83;;;1.30;;
12585;SDS011;6358;50.760;0.282;2023-02-28T00:29:58;1.33;;;1.17;;
12585;SDS011;6358;50.760;0.282;2023-02-28T00:32:24;3.40;;;1.53;;
12585;SDS011;6358;50.760;0.282;2023-02-28T00:34:50;1.23;;;1.10;;
12585;SDS011;6358;50.760;0.282;2023-02-28T00:37:16;0.90;;;0.90;;
12585;SDS011;6358;50.760;0.282;2023-02-28T00:39:43;1.40;;;1.20;;
12585;SDS011;6358;50.760;0.282;2023-02-28T00:42:09;1.77;;;1.27;;
12585;SDS011;6358;50.760;0.282;2023-02-28T00:44:35;1.23;;;1.10;;
12585;SDS011;6358;50.760;0.282;2023-02-28T00:47:01;2.73;;;1.50;;
12585;SDS011;6358;50.760;0.282;2023-02-28T00:49:27;1.73;;;1.20;;
12585;SDS011;6358;50.760;0.282;2023-02-28T00:51:54;1.30;;;1.20;;
12585;SDS011;6358;50.760;0.282;2023-02-28T00:54:20;1.77;;;1.30;;
12585;SDS011;6358;50.760;0.282;2023-02-28T00:56:47;2.27;;;1.13;;
12585;SDS011;6358;50.760;0.282;2023-02-28T00:59:13;1.97;;;1.17;;
12585;SDS011;6358;50.760;0.282;2023-02-28T01:01:40;1.43;;;1.23;;
12585;SDS011;6358;50.760;0.282;2023-02-28T01:04:06;1.23;;;1.10;;
12585;SDS011;6358;50.760;0.282;2023-02-28T01:06:32;1.87;;;1.00;;
12585;SDS011;6358;50.760;0.282;2023-02-28T01:08:58;1.20;;;1.10;;
12585;SDS011;6358;50.760;0.282;2023-02-28T01:11:25;1.00;;;0.90;;
12585;SDS011;6358;50.760;0.282;2023-02-28T01:13:51;3.73;;;1.27;;
12585;SDS011;6358;50.760;0.282;2023-02-28T01:16:17;1.10;;;0.90;;
12585;SDS011;6358;50.760;0.282;2023-02-28T01:18:43;2.13;;;1.20;;
12585;SDS011;6358;50.760;0.282;2023-02-28T01:21:10;1.47;;;1.00;;
12585;SDS011;6358;50.760;0.282;2023-02-28T01:23:37;1.40;;;1.13;;
12585;SDS011;6358;50.760;0.282;2023-02-28T01:26:07;1.10;;;1.03;;
12585;SDS011;6358;50.760;0.282;2023-02-28T01:28:33;1.93;;;1.10;;
12585;SDS011;6358;50.760;0.282;2023-02-28T01:30:59;1.50;;;1.20;;
12585;SDS011;6358;50.760;0.282;2023-02-28T01:33:25;1.27;;;1.10;;
12585;SDS011;6358;50.760;0.282;2023-02-28T01:36:05;1.17;;;0.97;;
12585;SDS011;6358;50.760;0.282;2023-02-28T01:38:32;1.30;;;0.97;;
12585;SDS011;6358;50.760;0.282;2023-02-28T01:40:59;1.20;;;1.10;;
12585;SDS011;6358;50.760;0.282;2023-02-28T01:43:29;1.30;;;0.93;;
12585;SDS011;6358;50.760;0.282;2023-02-28T01:45:56;1.10;;;1.00;;
12585;SDS011;6358;50.760;0.282;2023-02-28T01:48:24;2.07;;;1.13;;
12585;SDS011;6358;50.760;0.282;2023-02-28T01:50:51;1.23;;;0.80;;
12585;SDS011;6358;50.760;0.282;2023-02-28T01:53:18;2.23;;;1.20;;
12585;SDS011;6358;50.760;0.282;2023-02-28T01:55:48;1.63;;;1.27;;
12585;SDS011;6358;50.760;0.282;2023-02-28T01:58:15;1.23;;;1.03;;
12585;SDS011;6358;50.760;0.282;2023-02-28T02:00:42;1.37;;;0.90;;
12585;SDS011;6358;50.760;0.282;2023-02-28T02:03:08;1.40;;;1.00;;
12585;SDS011;6358;50.760;0.282;2023-02-28T02:05:37;1.20;;;0.83;;
12585;SDS011;6358;50.760;0.282;2023-02-28T02:08:04;1.40;;;1.00;;
12585;SDS011;6358;50.760;0.282;2023-02-28T02:10:34;2.00;;;1.10;;
12585;SDS011;6358;50.760;0.282;2023-02-28T02:13:14;1.53;;;1.10;;
12585;SDS011;6358;50.760;0.282;2023-02-28T02:26:20;1.40;;;0.93;;
12585;SDS011;6358;50.760;0.282;2023-02-28T02:39:13;0.80;;;0.80;;
12585;SDS011;6358;50.760;0.282;2023-02-28T02:41:45;2.00;;;1.00;;
12585;SDS011;6358;50.760;0.282;2023-02-28T02:44:23;1.70;;;1.00;;
12585;SDS011;6358;50.760;0.282;2023-02-28T02:46:52;2.20;;;1.10;;
12585;SDS011;6358;50.760;0.282;2023-02-28T02:49:21;1.77;;;0.80;;
12585;SDS011;6358;50.760;0.282;2023-02-28T02:51:48;2.10;;;0.83;;
12585;SDS011;6358;50.760;0.282;2023-02-28T02:56:41;1.30;;;0.80;;
12585;SDS011;6358;50.760;0.282;2023-02-28T02:59:09;1.50;;;0.97;;
12585;SDS011;6358;50.760;0.282;2023-02-28T03:01:37;1.00;;;0.80;;
12585;SDS011;6358;50.760;0.282;2023-02-28T03:04:05;1.77;;;0.90;;
12585;SDS011;6358;50.760;0.282;2023-02-28T03:06:33;1.10;;;0.90;;
12585;SDS011;6358;50.760;0.282;2023-02-28T03:09:00;1.30;;;0.90;;
12585;SDS011;6358;50.760;0.282;2023-02-28T03:11:26;1.13;;;0.70;;
12585;SDS011;6358;50.760;0.282;2023-02-28T03:18:52;1.20;;;0.77;;
12585;SDS011;6358;50.760;0.282;2023-02-28T03:21:23;1.13;;;0.97;;
12585;SDS011;6358;50.760;0.282;2023-02-28T03:23:55;2.10;;;1.07;;
12585;SDS011;6358;50.760;0.282;2023-02-28T03:26:24;1.20;;;0.80;;
12585;SDS011;6358;50.760;0.282;2023-02-28T03:29:02;0.73;;;0.70;;
12585;SDS011;6358;50.760;0.282;2023-02-28T03:31:32;1.23;;;0.90;;
12585;SDS011;6358;50.760;0.282;2023-02-28T03:34:01;2.03;;;1.10;;
12585;SDS011;6358;50.760;0.282;2023-02-28T03:36:29;0.97;;;0.80;;
12585;SDS011;6358;50.760;0.282;2023-02-28T03:39:04;1.70;;;0.80;;
12585;SDS011;6358;50.760;0.282;2023-02-28T03:41:33;1.50;;;1.00;;
12585;SDS011;6358;50.760;0.282;2023-02-28T03:44:09;1.73;;;0.97;;
12585;SDS011;6358;50.760;0.282;2023-02-28T03:46:41;1.50;;;1.13;;
12585;SDS011;6358;50.760;0.282;2023-02-28T03:49:11;2.77;;;0.97;;
12585;SDS011;6358;50.760;0.282;2023-02-28T03:51:39;1.00;;;0.90;;
12585;SDS011;6358;50.760;0.282;2023-02-28T03:54:08;1.87;;;0.80;;
12585;SDS011;6358;50.760;0.282;2023-02-28T03:56:37;2.20;;;0.97;;
12585;SDS011;6358;50.760;0.282;2023-02-28T03:59:05;1.83;;;1.00;;
12585;SDS011;6358;50.760;0.282;2023-02-28T04:01:35;1.43;;;0.83;;
12585;SDS011;6358;50.760;0.282;2023-02-28T04:04:02;1.30;;;1.00;;
12585;SDS011;6358;50.760;0.282;2023-02-28T04:06:29;1.37;;;0.80;;
12585;SDS011;6358;50.760;0.282;2023-02-28T04:08:56;1.10;;;0.90;;
12585;SDS011;6358;50.760;0.282;2023-02-28T04:11:23;0.80;;;0.70;;
12585;SDS011;6358;50.760;0.282;2023-02-28T04:13:49;2.13;;;0.90;;
12585;SDS011;6358;50.760;0.282;2023-02-28T04:16:16;1.83;;;1.10;;
12585;SDS011;6358;50.760;0.282;2023-02-28T04:18:42;1.30;;;0.77;;
12585;SDS011;6358;50.760;0.282;2023-02-28T04:21:08;1.13;;;0.90;;
12585;SDS011;6358;50.760;0.282;2023-02-28T04:23:35;1.73;;;1.00;;
12585;SDS011;6358;50.760;0.282;2023-02-28T04:26:01;2.07;;;1.10;;
12585;SDS011;6358;50.760;0.282;2023-02-28T04:28:28;1.87;;;1.10;;
12585;SDS011;6358;50.760;0.282;2023-02-28T04:31:02;1.27;;;0.90;;
12585;SDS011;6358;50.760;0.282;2023-02-28T04:33:29;2.23;;;1.13;;
12585;SDS011;6358;50.760;0.282;2023-02-28T04:36:03;1.47;;;0.93;;
12585;SDS011;6358;50.760;0.282;2023-02-28T04:38:37;1.00;;;0.87;;
12585;SDS011;6358;50.760;0.282;2023-02-28T04:41:03;1.43;;;0.93;;
12585;SDS011;6358;50.760;0.282;2023-02-28T04:43:29;1.37;;;1.00;;
12585;SDS011;6358;50.760;0.282;2023-02-28T04:45:56;0.80;;;0.80;;
12585;SDS011;6358;50.760;0.282;2023-02-28T04:48:29;1.13;;;0.67;;
12585;SDS011;6358;50.760;0.282;2023-02-28T04:50:59;1.50;;;0.87;;
12585;SDS011;6358;50.760;0.282;2023-02-28T04:53:27;2.00;;;0.90;;
12585;SDS011;6358;50.760;0.282;2023-02-28T04:55:54;1.27;;;0.90;;
12585;SDS011;6358;50.760;0.282;2023-02-28T04:58:20;1.43;;;0.87;;
12585;SDS011;6358;50.760;0.282;2023-02-28T05:00:48;1.13;;;0.80;;
12585;SDS011;6358;50.760;0.282;2023-02-28T05:03:14;1.57;;;1.00;;
12585;SDS011;6358;50.760;0.282;2023-02-28T05:05:40;2.13;;;1.10;;
12585;SDS011;6358;50.760;0.282;2023-02-28T05:08:06;2.37;;;1.07;;
12585;SDS011;6358;50.760;0.282;2023-02-28T05:10:32;1.23;;;1.00;;
12585;SDS011;6358;50.760;0.282;2023-02-28T05:12:58;1.80;;;1.00;;
12585;SDS011;6358;50.760;0.282;2023-02-28T05:15:24;1.37;;;0.93;;
12585;SDS011;6358;50.760;0.282;2023-02-28T05:17:50;2.07;;;1.00;;
12585;SDS011;6358;50.760;0.282;2023-02-28T05:20:16;1.57;;;1.00;;
12585;SDS011;6358;50.760;0.282;2023-02-28T05:22:43;1.40;;;0.73;;
12585;SDS011;6358;50.760;0.282;2023-02-28T05:25:13;1.63;;;1.10;;
12585;SDS011;6358;50.760;0.282;2023-02-28T05:27:41;1.97;;;1.10;;
12585;SDS011;6358;50.760;0.282;2023-02-28T05:30:07;1.77;;;1.10;;
12585;SDS011;6358;50.760;0.282;2023-02-28T05:32:36;1.17;;;0.87;;
12585;SDS011;6358;50.760;0.282;2023-02-28T05:35:02;2.27;;;0.90;;
12585;SDS011;6358;50.760;0.282;2023-02-28T05:37:28;2.17;;;1.03;;
12585;SDS011;6358;50.760;0.282;2023-02-28T05:39:54;1.63;;;1.00;;
12585;SDS011;6358;50.760;0.282;2023-02-28T05:42:20;2.10;;;0.90;;
12585;SDS011;6358;50.760;0.282;2023-02-28T05:44:46;1.13;;;0.77;;
12585;SDS011;6358;50.760;0.282;2023-02-28T05:47:13;1.37;;;1.10;;
12585;SDS011;6358;50.760;0.282;2023-02-28T05:49:40;1.33;;;0.90;;
12585;SDS011;6358;50.760;0.282;2023-02-28T05:52:07;1.87;;;1.10;;
12585;SDS011;6358;50.760;0.282;2023-02-28T05:54:33;2.63;;;1.10;;
12585;SDS011;6358;50.760;0.282;2023-02-28T05:56:59;1.13;;;0.80;;
12585;SDS011;6358;50.760;0.282;2023-02-28T05:59:25;1.57;;;0.90;;
12585;SDS011;6358;50.760;0.282;2023-02-28T06:01:51;1.07;;;0.83;;
12585;SDS011;6358;50.760;0.282;2023-02-28T06:04:19;1.17;;;0.87;;
12585;SDS011;6358;50.760;0.282;2023-02-28T06:06:48;1.83;;;1.00;;
12585;SDS011;6358;50.760;0.282;2023-02-28T06:09:15;1.70;;;1.00;;
12585;SDS011;6358;50.760;0.282;2023-02-28T06:11:41;1.13;;;1.00;;
12585;SDS011;6358;50.760;0.282;2023-02-28T06:14:09;2.00;;;0.87;;
12585;SDS011;6358;50.760;0.282;2023-02-28T06:16:39;2.63;;;1.00;;
12585;SDS011;6358;50.760;0.282;2023-02-28T06:19:05;2.30;;;1.03;;
12585;SDS011;6358;50.760;0.282;2023-02-28T06:21:31;1.70;;;1.00;;
12585;SDS011;6358;50.760;0.282;2023-02-28T06:23:58;1.93;;;1.20;;
12585;SDS011;6358;50.760;0.282;2023-02-28T06:26:24;1.87;;;1.00;;
12585;SDS011;6358;50.760;0.282;2023-02-28T06:28:50;2.27;;;1.10;;
12585;SDS011;6358;50.760;0.282;2023-02-28T06:31:17;1.63;;;0.90;;
12585;SDS011;6358;50.760;0.282;2023-02-28T06:33:44;1.27;;;1.00;;
12585;SDS011;6358;50.760;0.282;2023-02-28T06:36:11;1.73;;;0.93;;
12585;SDS011;6358;50.760;0.282;2023-02-28T06:38:37;1.50;;;0.70;;
12585;SDS011;6358;50.760;0.282;2023-02-28T06:41:04;2.17;;;1.10;;
12585;SDS011;6358;50.760;0.282;2023-02-28T06:43:32;2.13;;;1.00;;
12585;SDS011;6358;50.760;0.282;2023-02-28T06:45:59;2.23;;;1.00;;
12585;SDS011;6358;50.760;0.282;2023-02-28T06:48:26;1.33;;;1.00;;
12585;SDS011;6358;50.760;0.282;2023-02-28T06:51:00;2.30;;;1.10;;
12585;SDS011;6358;50.760;0.282;2023-02-28T06:53:26;0.90;;;0.80;;
12585;SDS011;6358;50.760;0.282;2023-02-28T06:55:52;1.00;;;0.90;;
12585;SDS011;6358;50.760;0.282;2023-02-28T06:58:18;1.77;;;1.07;;
12585;SDS011;6358;50.760;0.282;2023-02-28T07:00:45;1.33;;;0.97;;
12585;SDS011;6358;50.760;0.282;2023-02-28T07:03:11;1.43;;;0.90;;
12585;SDS011;6358;50.760;0.282;2023-02-28T07:05:40;0.80;;;0.80;;
12585;SDS011;6358;50.760;0.282;2023-02-28T07:08:06;2.13;;;1.20;;
12585;SDS011;6358;50.760;0.282;2023-02-28T07:10:33;1.47;;;1.00;;
12585;SDS011;6358;50.760;0.282;2023-02-28T07:12:59;1.43;;;0.83;;
12585;SDS011;6358;50.760;0.282;2023-02-28T07:15:25;2.47;;;1.20;;
12585;SDS011;6358;50.760;0.282;2023-02-28T07:17:51;1.43;;;1.00;;
12585;SDS011;6358;50.760;0.282;2023-02-28T07:20:18;1.80;;;0.93;;
12585;SDS011;6358;50.760;0.282;2023-02-28T07:22:44;2.60;;;1.20;;
12585;SDS011;6358;50.760;0.282;2023-02-28T07:25:10;1.90;;;1.10;;
12585;SDS011;6358;50.760;0.282;2023-02-28T07:27:36;1.93;;;1.00;;
12585;SDS011;6358;50.760;0.282;2023-02-28T07:30:02;2.47;;;1.20;;
12585;SDS011;6358;50.760;0.282;2023-02-28T07:32:28;2.70;;;1.17;;
12585;SDS011;6358;50.760;0.282;2023-02-28T07:34:55;2.70;;;1.00;;
12585;SDS011;6358;50.760;0.282;2023-02-28T07:37:21;1.63;;;0.93;;
12585;SDS011;6358;50.760;0.282;2023-02-28T07:39:47;2.53;;;0.83;;
12585;SDS011;6358;50.760;0.282;2023-02-28T07:42:13;1.10;;;0.90;;
12585;SDS011;6358;50.760;0.282;2023-02-28T07:44:39;3.57;;;1.40;;
12585;SDS011;6358;50.760;0.282;2023-02-28T07:47:09;2.80;;;1.30;;
12585;SDS011;6358;50.760;0.282;2023-02-28T07:49:36;1.40;;;1.00;;
12585;SDS011;6358;50.760;0.282;2023-02-28T07:52:03;5.77;;;1.20;;
12585;SDS011;6358;50.760;0.282;2023-02-28T07:54:29;2.90;;;1.30;;
12585;SDS011;6358;50.760;0.282;2023-02-28T07:56:55;3.20;;;1.20;;
12585;SDS011;6358;50.760;0.282;2023-02-28T07:59:21;2.40;;;1.13;;
12585;SDS011;6358;50.760;0.282;2023-02-28T08:01:47;4.13;;;1.17;;
12585;SDS011;6358;50.760;0.282;2023-02-28T08:04:15;2.07;;;1.10;;
12585;SDS011;6358;50.760;0.282;2023-02-28T08:06:42;3.63;;;1.20;;
12585;SDS011;6358;50.760;0.282;2023-02-28T08:09:08;1.80;;;1.07;;
12585;SDS011;6358;50.760;0.282;2023-02-28T08:11:34;2.00;;;1.10;;
12585;SDS011;6358;50.760;0.282;2023-02-28T08:14:01;18.17;;;12.73;;
12585;SDS011;6358;50.760;0.282;2023-02-28T08:16:27;99.80;;;88.80;;
12585;SDS011;6358;50.760;0.282;2023-02-28T08:18:53;193.23;;;172.27;;
12585;SDS011;6358;50.760;0.282;2023-02-28T08:21:20;179.17;;;159.77;;
12585;SDS011;6358;50.760;0.282;2023-02-28T08:23:49;164.63;;;146.60;;
12585;SDS011;6358;50.760;0.282;2023-02-28T08:26:16;143.77;;;128.77;;
12585;SDS011;6358;50.760;0.282;2023-02-28T08:28:42;137.27;;;122.23;;
12585;SDS011;6358;50.760;0.282;2023-02-28T08:31:12;130.30;;;116.60;;
12585;SDS011;6358;50.760;0.282;2023-02-28T08:33:39;126.87;;;113.50;;
12585;SDS011;6358;50.760;0.282;2023-02-28T08:36:07;123.97;;;110.60;;
12585;SDS011;6358;50.760;0.282;2023-02-28T08:38:33;117.87;;;105.13;;
12585;SDS011;6358;50.760;0.282;2023-02-28T08:41:00;108.43;;;96.70;;
12585;SDS011;6358;50.760;0.282;2023-02-28T08:43:27;101.77;;;90.83;;
12585;SDS011;6358;50.760;0.282;2023-02-28T08:45:54;96.20;;;85.80;;
12585;SDS011;6358;50.760;0.282;2023-02-28T08:48:21;89.03;;;79.73;;
12585;SDS011;6358;50.760;0.282;2023-02-28T08:51:04;82.03;;;73.40;;
12585;SDS011;6358;50.760;0.282;2023-02-28T08:53:31;81.67;;;73.03;;
12585;SDS011;6358;50.760;0.282;2023-02-28T08:56:00;74.93;;;67.17;;
12585;SDS011;6358;50.760;0.282;2023-02-28T08:58:27;71.10;;;63.40;;
12585;SDS011;6358;50.760;0.282;2023-02-28T09:00:53;64.83;;;57.83;;
12585;SDS011;6358;50.760;0.282;2023-02-28T09:03:19;62.70;;;56.07;;
12585;SDS011;6358;50.760;0.282;2023-02-28T09:05:52;57.80;;;51.80;;
12585;SDS011;6358;50.760;0.282;2023-02-28T09:08:18;54.10;;;48.20;;
12585;SDS011;6358;50.760;0.282;2023-02-28T09:10:44;52.53;;;47.13;;
12585;SDS011;6358;50.760;0.282;2023-02-28T09:13:10;49.20;;;43.93;;
12585;SDS011;6358;50.760;0.282;2023-02-28T09:15:37;47.70;;;42.83;;
12585;SDS011;6358;50.760;0.282;2023-02-28T09:18:03;42.90;;;38.37;;
12585;SDS011;6358;50.760;0.282;2023-02-28T09:20:29;41.23;;;36.83;;
12585;SDS011;6358;50.760;0.282;2023-02-28T09:22:55;39.33;;;35.03;;
12585;SDS011;6358;50.760;0.282;2023-02-28T09:25:21;36.57;;;32.77;;
12585;SDS011;6358;50.760;0.282;2023-02-28T09:27:47;35.47;;;31.77;;
12585;SDS011;6358;50.760;0.282;2023-02-28T09:30:14;33.00;;;29.50;;
12585;SDS011;6358;50.760;0.282;2023-02-28T09:32:40;31.13;;;27.80;;
12585;SDS011;6358;50.760;0.282;2023-02-28T09:35:06;28.73;;;25.73;;
12585;SDS011;6358;50.760;0.282;2023-02-28T09:37:38;28.17;;;25.27;;
12585;SDS011;6358;50.760;0.282;2023-02-28T09:40:04;26.83;;;23.93;;
12585;SDS011;6358;50.760;0.282;2023-02-28T09:42:31;25.90;;;23.10;;
12585;SDS011;6358;50.760;0.282;2023-02-28T09:44:58;23.70;;;21.23;;
12585;SDS011;6358;50.760;0.282;2023-02-28T09:47:36;24.53;;;21.57;;
12585;SDS011;6358;50.760;0.282;2023-02-28T09:52:39;21.90;;;19.57;;
12585;SDS011;6358;50.760;0.282;2023-02-28T09:57:41;18.10;;;16.20;;
12585;SDS011;6358;50.760;0.282;2023-02-28T10:05:12;16.83;;;14.57;;
12585;SDS011;6358;50.760;0.282;2023-02-28T10:10:13;15.57;;;13.73;;
12585;SDS011;6358;50.760;0.282;2023-02-28T10:12:44;13.83;;;12.27;;
12585;SDS011;6358;50.760;0.282;2023-02-28T10:15:14;13.57;;;11.27;;
12585;SDS011;6358;50.760;0.282;2023-02-28T10:17:41;13.17;;;11.10;;
12585;SDS011;6358;50.760;0.282;2023-02-28T10:20:12;11.67;;;10.13;;
12585;SDS011;6358;50.760;0.282;2023-02-28T10:25:16;9.73;;;8.80;;
12585;SDS011;6358;50.760;0.282;2023-02-28T10:27:42;11.07;;;9.47;;
12585;SDS011;6358;50.760;0.282;2023-02-28T10:30:09;9.37;;;8.37;;
12585;SDS011;6358;50.760;0.282;2023-02-28T10:32:37;9.60;;;8.60;;
12585;SDS011;6358;50.760;0.282;2023-02-28T10:37:30;14.77;;;12.57;;
12585;SDS011;6358;50.760;0.282;2023-02-28T10:39:57;16.67;;;12.60;;
12585;SDS011;6358;50.760;0.282;2023-02-28T10:42:25;10.10;;;9.00;;
12585;SDS011;6358;50.760;0.282;2023-02-28T10:47:38;9.07;;;7.80;;
12585;SDS011;6358;50.760;0.282;2023-02-28T10:50:26;7.50;;;6.70;;
12585;SDS011;6358;50.760;0.282;2023-02-28T10:52:52;8.40;;;7.40;;
12585;SDS011;6358;50.760;0.282;2023-02-28T10:55:23;7.40;;;6.10;;
12585;SDS011;6358;50.760;0.282;2023-02-28T10:57:53;8.00;;;6.03;;
12585;SDS011;6358;50.760;0.282;2023-02-28T11:00:20;7.57;;;6.50;;
12585;SDS011;6358;50.760;0.282;2023-02-28T11:02:47;8.13;;;5.80;;
12585;SDS011;6358;50.760;0.282;2023-02-28T11:05:32;7.47;;;5.53;;
12585;SDS011;6358;50.760;0.282;2023-02-28T11:10:28;6.00;;;4.70;;
12585;SDS011;6358;50.760;0.282;2023-02-28T11:12:57;5.67;;;5.03;;
12585;SDS011;6358;50.760;0.282;2023-02-28T11:15:25;6.03;;;4.67;;
12585;SDS011;6358;50.760;0.282;2023-02-28T11:17:53;4.70;;;4.20;;
12585;SDS011;6358;50.760;0.282;2023-02-28T11:20:23;4.60;;;3.87;;
12585;SDS011;6358;50.760;0.282;2023-02-28T11:22:50;4.57;;;4.17;;
12585;SDS011;6358;50.760;0.282;2023-02-28T11:25:33;5.27;;;3.93;;
12585;SDS011;6358;50.760;0.282;2023-02-28T11:28:00;4.90;;;4.40;;
12585;SDS011;6358;50.760;0.282;2023-02-28T11:30:34;6.07;;;5.43;;
12585;SDS011;6358;50.760;0.282;2023-02-28T11:33:13;6.90;;;5.27;;
12585;SDS011;6358;50.760;0.282;2023-02-28T11:35:44;10.50;;;5.60;;
12585;SDS011;6358;50.760;0.282;2023-02-28T11:38:12;6.83;;;5.03;;
12585;SDS011;6358;50.760;0.282;2023-02-28T11:40:43;12.00;;;5.17;;
12585;SDS011;6358;50.760;0.282;2023-02-28T11:43:19;7.50;;;4.80;;
12585;SDS011;6358;50.760;0.282;2023-02-28T11:45:52;8.00;;;4.10;;
12585;SDS011;6358;50.760;0.282;2023-02-28T11:48:31;4.77;;;3.90;;
12585;SDS011;6358;50.760;0.282;2023-02-28T11:51:01;5.27;;;3.63;;
12585;SDS011;6358;50.760;0.282;2023-02-28T11:56:06;8.00;;;3.20;;
12585;SDS011;6358;50.760;0.282;2023-02-28T12:03:30;4.90;;;2.93;;
12585;SDS011;6358;50.760;0.282;2023-02-28T12:06:01;3.93;;;2.93;;
12585;SDS011;6358;50.760;0.282;2023-02-28T12:08:50;3.87;;;2.90;;
12585;SDS011;6358;50.760;0.282;2023-02-28T12:13:55;4.23;;;2.50;;
12585;SDS011;6358;50.760;0.282;2023-02-28T12:18:59;2.97;;;2.30;;
12585;SDS011;6358;50.760;0.282;2023-02-28T12:24:00;3.30;;;2.20;;
12585;SDS011;6358;50.760;0.282;2023-02-28T12:29:16;2.17;;;1.67;;
12585;SDS011;6358;50.760;0.282;2023-02-28T12:31:54;2.57;;;2.00;;
12585;SDS011;6358;50.760;0.282;2023-02-28T12:34:25;3.57;;;2.30;;
12585;SDS011;6358;50.760;0.282;2023-02-28T12:36:53;2.03;;;1.83;;
12585;SDS011;6358;50.760;0.282;2023-02-28T12:39:33;2.40;;;1.80;;
12585;SDS011;6358;50.760;0.282;2023-02-28T12:42:11;2.37;;;1.90;;
12585;SDS011;6358;50.760;0.282;2023-02-28T12:44:52;2.37;;;2.00;;
12585;SDS011;6358;50.760;0.282;2023-02-28T12:47:20;4.33;;;1.70;;
12585;SDS011;6358;50.760;0.282;2023-02-28T12:49:50;1.90;;;1.70;;
12585;SDS011;6358;50.760;0.282;2023-02-28T12:52:23;3.07;;;1.73;;
12585;SDS011;6358;50.760;0.282;2023-02-28T12:54:56;2.30;;;1.80;;
12585;SDS011;6358;50.760;0.282;2023-02-28T12:57:48;2.43;;;1.70;;
12585;SDS011;6358;50.760;0.282;2023-02-28T13:00:17;1.93;;;1.60;;
12585;SDS011;6358;50.760;0.282;2023-02-28T13:05:37;2.83;;;1.90;;
12585;SDS011;6358;50.760;0.282;2023-02-28T13:10:43;1.57;;;1.30;;
12585;SDS011;6358;50.760;0.282;2023-02-28T13:13:16;1.47;;;1.20;;
12585;SDS011;6358;50.760;0.282;2023-02-28T13:15:56;1.23;;;1.17;;
12585;SDS011;6358;50.760;0.282;2023-02-28T13:18:38;1.33;;;1.23;;
12585;SDS011;6358;50.760;0.282;2023-02-28T13:21:08;1.50;;;1.40;;
12585;SDS011;6358;50.760;0.282;2023-02-28T13:26:16;3.43;;;1.60;;
12585;SDS011;6358;50.760;0.282;2023-02-28T13:31:14;2.93;;;1.63;;
12585;SDS011;6358;50.760;0.282;2023-02-28T13:49:27;1.30;;;1.20;;
12585;SDS011;6358;50.760;0.282;2023-02-28T13:57:03;1.50;;;1.37;;
12585;SDS011;6358;50.760;0.282;2023-02-28T14:00:00;1.80;;;1.43;;
12585;SDS011;6358;50.760;0.282;2023-02-28T14:02:28;1.60;;;1.50;;
12585;SDS011;6358;50.760;0.282;2023-02-28T14:05:00;1.33;;;1.20;;
12585;SDS011;6358;50.760;0.282;2023-02-28T14:07:28;1.50;;;1.10;;
12585;SDS011;6358;50.760;0.282;2023-02-28T14:09:59;1.27;;;1.00;;
12585;SDS011;6358;50.760;0.282;2023-02-28T14:18:04;2.07;;;1.00;;
12585;SDS011;6358;50.760;0.282;2023-02-28T14:20:31;1.00;;;1.00;;
12585;SDS011;6358;50.760;0.282;2023-02-28T14:25:33;1.27;;;0.90;;
12585;SDS011;6358;50.760;0.282;2023-02-28T14:28:13;1.00;;;1.00;;
12585;SDS011;6358;50.760;0.282;2023-02-28T14:33:22;1.07;;;0.97;;
12585;SDS011;6358;50.760;0.282;2023-02-28T14:36:01;1.10;;;1.00;;
12585;SDS011;6358;50.760;0.282;2023-02-28T14:38:36;0.80;;;0.80;;
12585;SDS011;6358;50.760;0.282;2023-02-28T14:41:12;0.70;;;0.70;;
12585;SDS011;6358;50.760;0.282;2023-02-28T14:43:47;1.30;;;1.00;;
12585;SDS011;6358;50.760;0.282;2023-02-28T14:46:13;1.33;;;0.90;;
12585;SDS011;6358;50.760;0.282;2023-02-28T14:48:40;1.13;;;1.03;;
12585;SDS011;6358;50.760;0.282;2023-02-28T14:51:06;0.87;;;0.87;;
12585;SDS011;6358;50.760;0.282;2023-02-28T14:53:35;0.77;;;0.77;;
12585;SDS011;6358;50.760;0.282;2023-02-28T14:56:02;1.13;;;0.90;;
12585;SDS011;6358;50.760;0.282;2023-02-28T14:58:32;2.50;;;0.93;;
12585;SDS011;6358;50.760;0.282;2023-02-28T15:01:00;0.90;;;0.90;;
12585;SDS011;6358;50.760;0.282;2023-02-28T15:03:37;1.10;;;0.90;;
12585;SDS011;6358;50.760;0.282;2023-02-28T15:06:13;0.80;;;0.80;;
12585;SDS011;6358;50.760;0.282;2023-02-28T15:08:39;0.63;;;0.63;;
12585;SDS011;6358;50.760;0.282;2023-02-28T15:11:06;0.70;;;0.70;;
12585;SDS011;6358;50.760;0.282;2023-02-28T15:13:36;0.80;;;0.70;;
12585;SDS011;6358;50.760;0.282;2023-02-28T15:16:12;1.00;;;0.83;;
12585;SDS011;6358;50.760;0.282;2023-02-28T15:18:44;1.10;;;0.80;;
12585;SDS011;6358;50.760;0.282;2023-02-28T15:21:14;1.73;;;0.90;;
12585;SDS011;6358;50.760;0.282;2023-02-28T15:23:42;1.50;;;0.80;;
12585;SDS011;6358;50.760;0.282;2023-02-28T15:26:11;1.00;;;0.77;;
12585;SDS011;6358;50.760;0.282;2023-02-28T15:28:39;0.80;;;0.70;;
12585;SDS011;6358;50.760;0.282;2023-02-28T15:31:17;0.97;;;0.80;;
12585;SDS011;6358;50.760;0.282;2023-02-28T15:33:57;1.43;;;0.80;;
12585;SDS011;6358;50.760;0.282;2023-02-28T15:36:31;0.97;;;0.80;;
12585;SDS011;6358;50.760;0.282;2023-02-28T15:38:58;1.33;;;0.73;;
12585;SDS011;6358;50.760;0.282;2023-02-28T15:41:35;1.80;;;0.70;;
12585;SDS011;6358;50.760;0.282;2023-02-28T15:46:53;0.93;;;0.83;;
12585;SDS011;6358;50.760;0.282;2023-02-28T15:49:20;0.90;;;0.60;;
12585;SDS011;6358;50.760;0.282;2023-02-28T15:51:48;2.20;;;0.90;;
12585;SDS011;6358;50.760;0.282;2023-02-28T15:54:16;1.73;;;0.80;;
12585;SDS011;6358;50.760;0.282;2023-02-28T15:56:46;0.70;;;0.70;;
12585;SDS011;6358;50.760;0.282;2023-02-28T15:59:17;0.90;;;0.80;;
12585;SDS011;6358;50.760;0.282;2023-02-28T16:01:44;0.77;;;0.70;;
12585;SDS011;6358;50.760;0.282;2023-02-28T16:04:17;1.40;;;0.80;;
12585;SDS011;6358;50.760;0.282;2023-02-28T16:09:13;1.03;;;0.90;;
12585;SDS011;6358;50.760;0.282;2023-02-28T16:11:41;0.93;;;0.93;;
12585;SDS011;6358;50.760;0.282;2023-02-28T16:14:11;1.27;;;0.70;;
12585;SDS011;6358;50.760;0.282;2023-02-28T16:16:41;1.00;;;1.00;;
12585;SDS011;6358;50.760;0.282;2023-02-28T16:19:08;1.10;;;0.80;;
12585;SDS011;6358;50.760;0.282;2023-02-28T16:21:34;1.33;;;0.83;;
12585;SDS011;6358;50.760;0.282;2023-02-28T16:24:00;1.20;;;0.90;;
12585;SDS011;6358;50.760;0.282;2023-02-28T16:26:26;0.80;;;0.73;;
12585;SDS011;6358;50.760;0.282;2023-02-28T16:28:53;1.20;;;0.80;;
12585;SDS011;6358;50.760;0.282;2023-02-28T16:31:20;1.43;;;0.70;;
12585;SDS011;6358;50.760;0.282;2023-02-28T16:33:46;2.03;;;1.00;;
12585;SDS011;6358;50.760;0.282;2023-02-28T16:36:13;1.23;;;0.80;;
12585;SDS011;6358;50.760;0.282;2023-02-28T16:38:39;1.87;;;0.90;;
12585;SDS011;6358;50.760;0.282;2023-02-28T16:41:06;1.20;;;0.87;;
12585;SDS011;6358;50.760;0.282;2023-02-28T16:43:32;1.10;;;1.00;;
12585;SDS011;6358;50.760;0.282;2023-02-28T16:45:58;2.27;;;0.90;;
12585;SDS011;6358;50.760;0.282;2023-02-28T16:48:26;0.70;;;0.70;;
12585;SDS011;6358;50.760;0.282;2023-02-28T16:50:52;0.80;;;0.80;;
12585;SDS011;6358;50.760;0.282;2023-02-28T16:53:18;1.10;;;0.80;;
12585;SDS011;6358;50.760;0.282;2023-02-28T16:55:44;2.63;;;0.83;;
12585;SDS011;6358;50.760;0.282;2023-02-28T16:58:14;0.90;;;0.80;;
12585;SDS011;6358;50.760;0.282;2023-02-28T17:00:41;2.00;;;0.90;;
12585;SDS011;6358;50.760;0.282;2023-02-28T17:03:17;2.83;;;1.00;;